Terminal Aerodrome Forecast
Issued by NWS

Home | Current Version | Previous Version | Text Only | Print | Product List | Glossary On
Versions: 1 2 3 4 5 6 7 8 9 10 11 12 13 14 15 16 17
000
FTUS45 KABQ 050525
TAFSAF
TAF
KSAF 050525Z 0506/0606 VRB06KT P6SM SCT050 BKN110
     FM051500 22006KT P6SM SCT070 SCT140
     FM051900 24008KT P6SM VCSH SCT060 SCT150
     FM052100 25012KT P6SM VCTS SCT070CB SCT150=

USA.gov is the U.S. government's official web portal to all federal, state and local government web resources and services.